Time;durP1;ratioP1;P1;durP2;ratioP2;P2;SDS_P1;SDS_P2;PMS_P1;PMS_P2;Temp;Humidity;BMP_temperature;BMP_pressure;BME280_temperature;BME280_humidity;BME280_pressure;Samples;Min_cycle;Max_cycle;Signal;HPM_P1;HPM_P2
2023/04/04 00:01:30;;;;;;;0.00;0.00;;;2.20;45.00;;;;;;5032868;28;20108;-87
2023/04/04 00:03:56;;;;;;;0.10;0.10;;;2.10;40.10;;;;;;5016678;28;20052;-87
2023/04/04 00:06:22;;;;;;;0.00;0.00;;;2.20;41.30;;;;;;5017335;28;20045;-87
2023/04/04 00:08:47;;;;;;;3.20;0.35;;;2.20;54.80;;;;;;5032640;28;20050;-87
2023/04/04 00:11:13;;;;;;;0.00;0.00;;;2.20;56.80;;;;;;5016496;28;20401;-88
2023/04/04 00:13:40;;;;;;;0.00;0.00;;;2.20;49.80;;;;;;5000190;28;20037;-87
2023/04/04 00:16:06;;;;;;;0.00;0.00;;;2.20;50.30;;;;;;5032524;28;20045;-88
2023/04/04 00:18:32;;;;;;;0.25;0.10;;;2.10;55.20;;;;;;5016426;28;20045;-87
2023/04/04 00:20:58;;;;;;;0.00;0.00;;;2.10;50.80;;;;;;5016728;28;20381;-87
2023/04/04 00:23:24;;;;;;;0.00;0.00;;;2.00;53.50;;;;;;5016538;28;20042;-87
2023/04/04 00:25:52;;;;;;;0.10;0.10;;;1.90;52.30;;;;;;5000275;28;20578;-87
2023/04/04 00:28:20;;;;;;;0.00;0.00;;;1.90;52.90;;;;;;5016288;28;20135;-87
2023/04/04 00:30:46;;;;;;;0.65;0.20;;;1.90;58.40;;;;;;5032503;28;20045;-87
2023/04/04 00:33:12;;;;;;;1.02;0.45;;;1.90;50.00;;;;;;5000231;28;20095;-87
2023/04/04 00:35:38;;;;;;;0.00;0.00;;;1.80;62.50;;;;;;5015823;28;20045;-87
2023/04/04 00:38:04;;;;;;;0.00;0.00;;;1.90;60.50;;;;;;5016962;28;20132;-87
2023/04/04 00:40:30;;;;;;;0.00;0.00;;;1.80;60.70;;;;;;5016380;28;20363;-87
2023/04/04 00:42:56;;;;;;;0.00;0.00;;;1.80;64.40;;;;;;5032709;28;20050;-87
2023/04/04 00:45:22;;;;;;;0.00;0.00;;;1.90;63.80;;;;;;5032687;28;20053;-87
2023/04/04 00:47:49;;;;;;;0.00;0.00;;;1.90;60.90;;;;;;5016167;28;20056;-87
2023/04/04 00:50:15;;;;;;;0.00;0.00;;;1.90;61.40;;;;;;5032686;28;20046;-87
2023/04/04 00:52:41;;;;;;;0.40;0.10;;;1.90;56.30;;;;;;5016186;28;20440;-87
2023/04/04 00:55:07;;;;;;;0.77;0.30;;;1.90;61.10;;;;;;5017379;28;20114;-87
2023/04/04 00:57:33;;;;;;;0.00;0.00;;;1.80;62.40;;;;;;5020161;28;20053;-87
2023/04/04 01:00:03;;;;;;;0.00;0.00;;;1.80;61.30;;;;;;5037352;28;20501;-87
2023/04/04 01:02:29;;;;;;;0.00;0.00;;;1.70;56.70;;;;;;5036803;28;20485;-87
2023/04/04 01:04:55;;;;;;;0.00;0.00;;;1.60;55.30;;;;;;5036481;28;20045;-87
2023/04/04 01:07:21;;;;;;;0.00;0.00;;;1.60;59.60;;;;;;5003557;28;20053;-86
2023/04/04 01:09:47;;;;;;;0.00;0.00;;;1.60;60.80;;;;;;5020374;28;20061;-87
2023/04/04 01:12:13;;;;;;;0.00;0.00;;;1.60;59.40;;;;;;5036347;28;20049;-87
2023/04/04 01:14:39;;;;;;;0.00;0.00;;;1.50;56.40;;;;;;5019821;28;20052;-86
2023/04/04 01:17:05;;;;;;;0.00;0.00;;;1.50;63.70;;;;;;5019722;28;20136;-87
2023/04/04 01:19:52;;;;;;;0.00;0.00;;;1.50;62.60;;;;;;5019815;28;20084;-87
2023/04/04 01:22:20;;;;;;;1.88;0.45;;;1.60;67.10;;;;;;5019975;28;20088;-87
2023/04/04 01:24:47;;;;;;;0.77;0.00;;;1.50;67.80;;;;;;5036417;28;20103;-87
2023/04/04 01:27:13;;;;;;;0.15;0.15;;;1.50;66.10;;;;;;5019333;28;20481;-87
2023/04/04 01:29:39;;;;;;;0.03;0.03;;;1.40;67.70;;;;;;5036254;28;20176;-87
2023/04/04 01:32:34;;;;;;;0.30;0.28;;;1.50;67.40;;;;;;5036054;28;20084;-87
2023/04/04 01:35:29;;;;;;;0.00;0.00;;;1.50;66.80;;;;;;5022819;28;20053;-87
2023/04/04 01:38:20;;;;;;;0.00;0.00;;;1.30;62.10;;;;;;5036194;28;20054;-87
2023/04/04 01:40:49;;;;;;;0.00;0.00;;;1.30;64.80;;;;;;5036248;28;20493;-87
2023/04/04 01:43:15;;;;;;;0.20;0.20;;;1.30;62.90;;;;;;5035763;28;20394;-87
2023/04/04 01:45:41;;;;;;;0.20;0.20;;;1.30;63.30;;;;;;5035558;28;20091;-86
2023/04/04 01:48:09;;;;;;;0.00;0.00;;;1.20;65.10;;;;;;5035866;28;20499;-87
2023/04/04 01:50:36;;;;;;;0.00;0.00;;;1.20;70.10;;;;;;5019802;28;20060;-87
2023/04/04 01:53:01;;;;;;;0.00;0.00;;;1.20;67.70;;;;;;5035592;28;20041;-87
2023/04/04 01:55:27;;;;;;;21.63;0.40;;;1.20;68.70;;;;;;5003453;28;20172;-86
2023/04/04 01:57:53;;;;;;;0.47;0.30;;;1.20;66.30;;;;;;5036419;28;20052;-87
2023/04/04 02:00:18;;;;;;;0.00;0.00;;;1.10;66.70;;;;;;5019394;28;20416;-87
2023/04/04 02:02:44;;;;;;;0.00;0.00;;;1.10;68.80;;;;;;5036311;28;20044;-86
2023/04/04 02:05:10;;;;;;;0.00;0.00;;;1.10;68.80;;;;;;5035280;28;20100;-87
2023/04/04 02:07:36;;;;;;;0.00;0.00;;;1.10;70.80;;;;;;5034758;28;20049;-86
2023/04/04 02:10:02;;;;;;;0.55;0.38;;;1.10;72.00;;;;;;5036071;28;20057;-87
2023/04/04 02:12:28;;;;;;;0.00;0.00;;;1.10;68.90;;;;;;5018772;28;20045;-86
2023/04/04 02:14:54;;;;;;;0.00;0.00;;;1.10;65.50;;;;;;5035876;28;20057;-86
2023/04/04 02:17:19;;;;;;;0.00;0.00;;;1.10;67.30;;;;;;5034869;28;20089;-86
2023/04/04 02:19:45;;;;;;;0.00;0.00;;;1.10;70.20;;;;;;5018651;28;20049;-86
2023/04/04 02:22:11;;;;;;;0.00;0.00;;;1.00;71.40;;;;;;5035046;28;20056;-86
2023/04/04 02:24:36;;;;;;;0.00;0.00;;;1.10;70.00;;;;;;5018584;28;20053;-86
2023/04/04 02:27:03;;;;;;;0.00;0.00;;;1.00;68.10;;;;;;5018768;28;20085;-86
2023/04/04 02:29:29;;;;;;;0.00;0.00;;;1.00;65.90;;;;;;5018589;28;20103;-86
2023/04/04 02:31:55;;;;;;;0.00;0.00;;;1.10;68.00;;;;;;5034899;28;20090;-86
2023/04/04 02:34:20;;;;;;;0.05;0.03;;;1.10;62.80;;;;;;5035679;28;20046;-86
2023/04/04 02:36:46;;;;;;;0.00;0.00;;;1.00;65.40;;;;;;5034778;28;20100;-86
2023/04/04 02:39:12;;;;;;;0.00;0.00;;;0.90;71.00;;;;;;5035035;28;20363;-86
2023/04/04 02:41:37;;;;;;;0.00;0.00;;;0.90;73.10;;;;;;5018219;28;20445;-86
2023/04/04 02:44:03;;;;;;;0.32;0.22;;;0.90;71.90;;;;;;5034957;28;20050;-86
2023/04/04 02:46:29;;;;;;;0.10;0.08;;;0.80;71.50;;;;;;5035612;28;20049;-86
2023/04/04 02:48:55;;;;;;;1.10;0.85;;;0.80;66.10;;;;;;5018091;28;20041;-86
2023/04/04 02:51:21;;;;;;;0.10;0.10;;;0.80;70.70;;;;;;5018070;28;20096;-86
2023/04/04 02:53:46;;;;;;;0.00;0.00;;;0.80;67.60;;;;;;5034463;28;20050;-86
2023/04/04 02:56:13;;;;;;;0.00;0.00;;;0.80;73.10;;;;;;5034132;28;20156;-86
2023/04/04 02:58:38;;;;;;;0.38;0.35;;;0.80;71.10;;;;;;5034361;28;20056;-86
2023/04/04 03:01:04;;;;;;;0.00;0.00;;;0.70;70.80;;;;;;5034640;28;20041;-86
2023/04/04 03:03:30;;;;;;;0.15;0.00;;;0.60;75.20;;;;;;5018063;28;20485;-86
2023/04/04 03:05:57;;;;;;;4.97;0.17;;;0.60;76.10;;;;;;5017773;28;20075;-86
2023/04/04 03:08:23;;;;;;;0.10;0.10;;;0.50;69.30;;;;;;5033968;28;20049;-86
2023/04/04 03:10:48;;;;;;;0.65;0.65;;;0.50;71.50;;;;;;5018022;28;20383;-86
2023/04/04 03:13:14;;;;;;;0.00;0.00;;;0.50;74.20;;;;;;5034356;28;20045;-86
2023/04/04 03:15:40;;;;;;;0.00;0.00;;;0.50;74.40;;;;;;5033823;28;20133;-86
2023/04/04 03:18:06;;;;;;;0.00;0.00;;;0.50;77.20;;;;;;5017074;28;20045;-86
2023/04/04 03:20:32;;;;;;;0.00;0.00;;;0.60;73.90;;;;;;5000974;28;20095;-86
2023/04/04 03:22:57;;;;;;;0.10;0.00;;;0.50;74.90;;;;;;5017178;28;20045;-86
2023/04/04 03:25:23;;;;;;;0.00;0.00;;;0.50;72.70;;;;;;5033539;28;20049;-86
2023/04/04 03:27:49;;;;;;;0.00;0.00;;;0.60;72.50;;;;;;5017351;28;20049;-86
2023/04/04 03:30:15;;;;;;;0.00;0.00;;;0.60;70.60;;;;;;5034631;28;20053;-86
2023/04/04 03:32:40;;;;;;;0.00;0.00;;;0.60;69.90;;;;;;5017287;28;20046;-86
2023/04/04 03:35:06;;;;;;;0.22;0.22;;;0.70;74.20;;;;;;5017849;28;20374;-86
2023/04/04 03:37:32;;;;;;;0.00;0.00;;;0.60;72.40;;;;;;5017226;28;20046;-86
2023/04/04 03:39:58;;;;;;;0.20;0.10;;;0.60;69.30;;;;;;5033590;28;20044;-86
2023/04/04 03:42:25;;;;;;;0.08;0.08;;;0.60;71.20;;;;;;5033504;28;20493;-86
2023/04/04 03:44:52;;;;;;;0.03;0.03;;;0.70;70.60;;;;;;5017025;28;20045;-86
2023/04/04 03:47:18;;;;;;;0.00;0.00;;;0.60;72.00;;;;;;5017884;28;20111;-86
2023/04/04 03:49:44;;;;;;;0.00;0.00;;;0.60;69.20;;;;;;5017013;28;20049;-86
2023/04/04 03:52:10;;;;;;;0.00;0.00;;;0.60;68.70;;;;;;5000778;28;20045;-87
2023/04/04 03:54:36;;;;;;;0.00;0.00;;;0.60;67.80;;;;;;5017672;28;20077;-86
2023/04/04 03:57:02;;;;;;;0.00;0.00;;;0.60;65.70;;;;;;5033579;28;20083;-86
2023/04/04 03:59:28;;;;;;;2.53;0.15;;;0.50;63.70;;;;;;5016847;28;20037;-86
2023/04/04 04:01:54;;;;;;;0.20;0.20;;;0.50;63.80;;;;;;5033148;28;20047;-86
2023/04/04 04:04:20;;;;;;;0.00;0.00;;;0.40;68.50;;;;;;5033472;28;20049;-86
2023/04/04 04:06:47;;;;;;;0.00;0.00;;;0.40;68.80;;;;;;5016949;28;20091;-86
2023/04/04 04:09:14;;;;;;;0.00;0.00;;;0.40;69.00;;;;;;5032757;28;20057;-86
2023/04/04 04:11:39;;;;;;;0.00;0.00;;;0.30;72.10;;;;;;5016575;28;20053;-86
2023/04/04 04:14:05;;;;;;;1.52;0.15;;;0.30;72.50;;;;;;5033127;28;20049;-86
2023/04/04 04:16:31;;;;;;;0.00;0.00;;;0.20;75.10;;;;;;5033024;28;20103;-86
2023/04/04 04:18:57;;;;;;;0.00;0.00;;;0.20;77.50;;;;;;5016620;28;20056;-86
2023/04/04 04:21:24;;;;;;;0.00;0.00;;;0.10;78.60;;;;;;5016310;28;20042;-86
2023/04/04 04:23:50;;;;;;;0.00;0.00;;;0.10;78.40;;;;;;5016448;28;20049;-86
2023/04/04 04:26:16;;;;;;;0.00;0.00;;;0.10;74.80;;;;;;5016725;28;20053;-86
2023/04/04 04:28:42;;;;;;;0.00;0.00;;;0.10;75.20;;;;;;5017234;28;20357;-87
2023/04/04 04:31:09;;;;;;;0.00;0.00;;;0.10;76.00;;;;;;5016414;28;20561;-86
2023/04/04 04:33:35;;;;;;;0.30;0.30;;;0.10;76.60;;;;;;5016769;28;20053;-86
2023/04/04 04:36:05;;;;;;;0.00;0.00;;;0.10;78.20;;;;;;5015710;28;20084;-86
2023/04/04 04:38:32;;;;;;;0.00;0.00;;;0.10;77.30;;;;;;4999396;28;20068;-86
2023/04/04 04:40:59;;;;;;;0.43;0.35;;;0.10;74.10;;;;;;5032712;28;20045;-86
2023/04/04 04:43:25;;;;;;;0.00;0.00;;;0.10;76.10;;;;;;5016538;28;20144;-86
2023/04/04 04:45:50;;;;;;;0.00;0.00;;;0.10;76.10;;;;;;5032949;28;20132;-86
2023/04/04 04:48:17;;;;;;;0.00;0.00;;;0.10;81.10;;;;;;5032989;28;20049;-87
2023/04/04 04:50:44;;;;;;;0.00;0.00;;;0.00;82.70;;;;;;5032507;28;20048;-87
2023/04/04 04:53:10;;;;;;;0.03;0.03;;;0.00;78.70;;;;;;5016189;28;20473;-87
2023/04/04 04:55:35;;;;;;;0.00;0.00;;;0.00;80.80;;;;;;5016728;28;20180;-86
2023/04/04 04:58:02;;;;;;;0.00;0.00;;;0.10;77.80;;;;;;4999524;28;20049;-86
2023/04/04 05:00:28;;;;;;;1.75;0.30;;;0.00;79.00;;;;;;5032477;28;20041;-86
2023/04/04 05:02:59;;;;;;;0.00;0.00;;;0.00;79.40;;;;;;5033361;28;20042;-87
2023/04/04 05:05:25;;;;;;;0.00;0.00;;;0.00;80.20;;;;;;5015796;28;20061;-86
2023/04/04 05:07:51;;;;;;;0.00;0.00;;;0.10;79.10;;;;;;5015674;28;20462;-86
2023/04/04 05:10:17;;;;;;;0.00;0.00;;;0.10;78.00;;;;;;5032295;28;20140;-86
2023/04/04 05:12:43;;;;;;;0.00;0.00;;;0.10;77.80;;;;;;5015824;28;20064;-86
2023/04/04 05:15:10;;;;;;;0.00;0.00;;;0.10;79.90;;;;;;5016530;28;20500;-86
2023/04/04 05:17:36;;;;;;;0.10;0.10;;;0.10;81.00;;;;;;5015862;28;20440;-86
2023/04/04 05:20:02;;;;;;;0.00;0.00;;;0.10;78.00;;;;;;5015898;28;20099;-86
2023/04/04 05:22:28;;;;;;;0.65;0.65;;;0.10;82.00;;;;;;5033186;28;20049;-86
2023/04/04 05:24:53;;;;;;;0.00;0.00;;;0.10;82.50;;;;;;5016174;28;20386;-87
2023/04/04 05:27:19;;;;;;;0.00;0.00;;;0.10;82.10;;;;;;5032278;28;20099;-86
2023/04/04 05:29:46;;;;;;;0.00;0.00;;;0.20;80.20;;;;;;5031982;28;20081;-86
2023/04/04 05:32:12;;;;;;;0.00;0.00;;;0.20;80.40;;;;;;5000581;28;20049;-86
2023/04/04 05:34:37;;;;;;;0.03;0.03;;;0.20;82.70;;;;;;5032436;28;20099;-87
2023/04/04 05:37:03;;;;;;;0.00;0.00;;;0.30;81.80;;;;;;5015922;28;20114;-86
2023/04/04 05:39:29;;;;;;;0.00;0.00;;;0.30;79.10;;;;;;5032200;28;20549;-87
2023/04/04 05:41:55;;;;;;;0.43;0.43;;;0.50;79.80;;;;;;5017445;28;20485;-87
2023/04/04 05:44:20;;;;;;;0.00;0.00;;;0.50;78.70;;;;;;5036008;28;20049;-87
2023/04/04 05:46:46;;;;;;;0.00;0.00;;;0.60;78.40;;;;;;5019252;28;20052;-87
2023/04/04 05:49:12;;;;;;;0.00;0.00;;;0.70;77.80;;;;;;5019281;28;20041;-87
2023/04/04 05:51:37;;;;;;;0.32;0.15;;;0.80;77.80;;;;;;5003639;28;20055;-86
2023/04/04 05:54:06;;;;;;;0.00;0.00;;;0.90;73.80;;;;;;5019084;28;20041;-86
2023/04/04 05:56:32;;;;;;;0.00;0.00;;;1.00;72.80;;;;;;5019516;28;20374;-89
2023/04/04 05:58:58;;;;;;;0.10;0.10;;;1.10;69.00;;;;;;5019897;28;20056;-89
2023/04/04 06:01:24;;;;;;;0.63;0.43;;;1.10;64.60;;;;;;5002771;28;20045;-88
2023/04/04 06:03:50;;;;;;;0.00;0.00;;;1.20;67.80;;;;;;5036432;28;20054;-86
2023/04/04 06:06:16;;;;;;;0.00;0.00;;;1.40;72.10;;;;;;5019126;28;20501;-87
2023/04/04 06:08:42;;;;;;;0.20;0.20;;;1.50;69.40;;;;;;5035152;28;20053;-87
2023/04/04 06:11:08;;;;;;;0.90;0.10;;;1.70;64.80;;;;;;5036186;28;20385;-86
2023/04/04 06:13:34;;;;;;;0.65;0.20;;;1.80;62.90;;;;;;5035255;28;20057;-87
2023/04/04 06:16:00;;;;;;;0.00;0.00;;;2.00;57.70;;;;;;5018812;28;20087;-89
2023/04/04 06:18:25;;;;;;;0.20;0.20;;;2.20;53.70;;;;;;5035940;28;20420;-86
2023/04/04 06:20:51;;;;;;;0.00;0.00;;;2.20;48.00;;;;;;5035943;28;20049;-86
2023/04/04 06:23:17;;;;;;;0.00;0.00;;;2.20;44.40;;;;;;5018862;28;20041;-86
2023/04/04 06:25:42;;;;;;;0.00;0.00;;;2.30;39.70;;;;;;5035278;28;20077;-86
2023/04/04 06:28:09;;;;;;;0.70;0.40;;;2.20;35.30;;;;;;5018380;28;20485;-86
2023/04/04 06:30:39;;;;;;;5.35;1.30;;;2.40;32.50;;;;;;5034042;28;20139;-86
2023/04/04 06:33:05;;;;;;;0.00;0.00;;;2.30;32.00;;;;;;5018565;28;20068;-86
2023/04/04 06:35:31;;;;;;;0.00;0.00;;;2.30;31.70;;;;;;5034415;28;20477;-86
2023/04/04 06:37:57;;;;;;;0.00;0.00;;;2.50;44.40;;;;;;5017422;28;20500;-86
2023/04/04 06:40:22;;;;;;;0.00;0.00;;;2.80;40.70;;;;;;5001868;28;20053;-88
2023/04/04 06:42:53;;;;;;;0.20;0.20;;;3.20;34.60;;;;;;5018772;28;20454;-87
2023/04/04 06:45:19;;;;;;;0.00;0.00;;;3.80;22.50;;;;;;5034727;28;20061;-88
2023/04/04 06:47:45;;;;;;;0.20;0.20;;;4.20;4.40;;;;;;5034491;28;20045;-87
2023/04/04 06:50:12;;;;;;;1.00;0.20;;;4.70;1.00;;;;;;5017622;28;20041;-87
2023/04/04 06:52:37;;;;;;;0.00;0.00;;;5.00;1.00;;;;;;5016771;28;20068;-89
2023/04/04 06:55:04;;;;;;;0.00;0.00;;;5.40;1.00;;;;;;5017812;28;20046;-87
2023/04/04 06:57:30;;;;;;;0.00;0.00;;;5.60;1.00;;;;;;5034367;28;20045;-86
2023/04/04 06:59:56;;;;;;;0.00;0.00;;;5.90;1.00;;;;;;5018272;28;20116;-88
2023/04/04 07:02:22;;;;;;;0.20;0.20;;;6.10;1.00;;;;;;5035370;28;20049;-89
2023/04/04 07:04:47;;;;;;;0.00;0.00;;;6.00;99.90;;;;;;5000922;28;20064;-87
2023/04/04 07:07:13;;;;;;;0.00;0.00;;;5.90;99.90;;;;;;5033776;28;20510;-86
2023/04/04 07:09:39;;;;;;;0.00;0.00;;;6.00;1.00;;;;;;5033516;28;20096;-85
2023/04/04 07:12:04;;;;;;;0.00;0.00;;;6.40;1.00;;;;;;5034204;28;20049;-85
2023/04/04 07:14:30;;;;;;;0.20;0.17;;;6.90;99.90;;;;;;5001693;28;20382;-86
2023/04/04 07:16:57;;;;;;;0.43;0.15;;;7.40;99.90;;;;;;5034566;28;20067;-86
2023/04/04 07:19:27;;;;;;;0.32;0.10;;;7.60;99.90;;;;;;5017731;28;20049;-86
2023/04/04 07:21:54;;;;;;;0.00;0.00;;;8.00;99.90;;;;;;5033490;28;20065;-86
2023/04/04 07:24:20;;;;;;;0.00;0.00;;;8.60;1.00;;;;;;5018073;28;20148;-87
2023/04/04 07:26:46;;;;;;;0.00;0.00;;;9.00;87.10;;;;;;5017452;28;20050;-87
2023/04/04 07:29:12;;;;;;;0.00;0.00;;;9.20;71.10;;;;;;5034554;28;20045;-87
2023/04/04 07:31:38;;;;;;;0.00;0.00;;;9.60;99.90;;;;;;5033999;28;20037;-86
2023/04/04 07:34:04;;;;;;;0.00;0.00;;;10.10;1.00;;;;;;5033687;28;20096;-85
2023/04/04 07:36:30;;;;;;;0.00;0.00;;;10.70;35.40;;;;;;5000872;28;20046;-86
2023/04/04 07:38:56;;;;;;;0.00;0.00;;;11.20;1.00;;;;;;5033750;28;20124;-88
2023/04/04 07:41:22;;;;;;;0.15;0.15;;;11.20;99.90;;;;;;5017731;28;20449;-88
2023/04/04 07:43:48;;;;;;;0.00;0.00;;;11.50;99.90;;;;;;5033793;28;20045;-86
2023/04/04 07:46:15;;;;;;;0.00;0.00;;;11.70;1.00;;;;;;5017155;28;20091;-85
2023/04/04 07:48:41;;;;;;;0.00;0.00;;;11.90;1.00;;;;;;5034302;28;20053;-85
2023/04/04 07:51:06;;;;;;;0.75;0.30;;;11.70;99.90;;;;;;5017270;28;20080;-84
2023/04/04 07:53:32;;;;;;;0.00;0.00;;;11.50;99.90;;;;;;5033689;28;20068;-85
2023/04/04 07:55:58;;;;;;;0.10;0.00;;;10.90;99.90;;;;;;5000286;28;20048;-85
2023/04/04 07:58:23;;;;;;;5.95;0.08;;;10.40;99.90;;;;;;5016914;28;20042;-85
2023/04/04 08:00:49;;;;;;;0.10;0.00;;;10.10;99.90;;;;;;5032946;28;20056;-84
2023/04/04 08:03:16;;;;;;;0.00;0.00;;;10.00;99.90;;;;;;5017588;28;20045;-84
2023/04/04 08:05:42;;;;;;;0.28;0.00;;;9.80;99.90;;;;;;5016674;28;20064;-85
2023/04/04 08:08:08;;;;;;;0.22;0.10;;;9.50;99.90;;;;;;5032779;28;20042;-84
2023/04/04 08:10:33;;;;;;;0.00;0.00;;;9.30;99.90;;;;;;5016908;28;20053;-88
2023/04/04 08:12:59;;;;;;;0.00;0.00;;;8.90;99.90;;;;;;5033486;28;20049;-88
2023/04/04 08:15:26;;;;;;;0.00;0.00;;;8.60;99.90;;;;;;5033447;28;20045;-89
2023/04/04 08:17:52;;;;;;;0.00;0.00;;;8.50;1.00;;;;;;5017697;28;20128;-87
2023/04/04 08:20:18;;;;;;;1.35;0.75;;;8.50;1.00;;;;;;5033087;28;20124;-86
2023/04/04 08:22:43;;;;;;;0.00;0.00;;;8.30;1.00;;;;;;5016997;28;20092;-87
2023/04/04 08:25:10;;;;;;;0.00;0.00;;;8.20;1.00;;;;;;5017604;28;20056;-87
2023/04/04 08:27:39;;;;;;;0.15;0.15;;;8.10;1.00;;;;;;5016898;28;20448;-85
2023/04/04 08:30:05;;;;;;;0.30;0.30;;;7.90;1.00;;;;;;5016531;28;20049;-85
2023/04/04 08:32:31;;;;;;;1.50;0.17;;;7.90;1.00;;;;;;5016909;28;20103;-91
2023/04/04 08:34:57;;;;;;;0.00;0.00;;;7.80;1.00;;;;;;5033447;28;20045;-90
2023/04/04 08:37:23;;;;;;;0.00;0.00;;;7.70;1.00;;;;;;5016706;28;20524;-90
2023/04/04 08:39:49;;;;;;;0.10;0.00;;;7.70;1.00;;;;;;5033635;28;20061;-86
2023/04/04 08:42:19;;;;;;;0.00;0.00;;;7.60;1.00;;;;;;5016274;28;20056;-85
2023/04/04 08:44:48;;;;;;;0.00;0.00;;;7.60;1.00;;;;;;5033049;28;20466;-85
2023/04/04 08:47:15;;;;;;;0.00;0.00;;;7.70;3.40;;;;;;5016290;28;20053;-85
2023/04/04 08:49:45;;;;;;;0.00;0.00;;;7.80;1.00;;;;;;5032394;28;20495;-85
2023/04/04 08:52:18;;;;;;;0.00;0.00;;;7.90;1.00;;;;;;5032905;28;20069;-85
2023/04/04 08:54:45;;;;;;;0.00;0.00;;;8.00;1.00;;;;;;5032781;28;20103;-85
2023/04/04 08:57:11;;;;;;;1.75;0.57;;;8.10;1.00;;;;;;5016096;28;20058;-85
2023/04/04 08:59:37;;;;;;;0.00;0.00;;;8.10;1.00;;;;;;5032811;28;20058;-85
2023/04/04 09:02:10;;;;;;;0.20;0.20;;;8.30;1.00;;;;;;5016081;28;20060;-85
2023/04/04 09:04:38;;;;;;;0.00;0.00;;;8.30;1.00;;;;;;5032547;28;20053;-86
2023/04/04 09:07:05;;;;;;;0.00;0.00;;;8.50;1.00;;;;;;5015990;28;20136;-86
2023/04/04 09:09:32;;;;;;;0.00;0.00;;;8.80;11.20;;;;;;5032047;28;20454;-86
2023/04/04 09:12:00;;;;;;;0.00;0.00;;;9.00;25.30;;;;;;5032690;28;20096;-86
2023/04/04 09:14:28;;;;;;;0.20;0.20;;;9.20;1.00;;;;;;5032107;28;20054;-87
2023/04/04 09:16:54;;;;;;;0.35;0.35;;;9.30;1.00;;;;;;5034695;28;20053;-88
2023/04/04 09:19:20;;;;;;;0.73;0.10;;;9.10;1.00;;;;;;5036097;28;20045;-86
2023/04/04 09:21:47;;;;;;;0.00;0.00;;;9.30;1.00;;;;;;5019812;28;20049;-88
2023/04/04 09:24:13;;;;;;;0.05;0.03;;;9.60;1.00;;;;;;5035599;28;20041;-87
2023/04/04 09:26:50;;;;;;;0.00;0.00;;;9.60;1.00;;;;;;5019526;28;20053;-87
2023/04/04 09:29:20;;;;;;;3.63;1.00;;;9.60;99.90;;;;;;5035832;28;20085;-87
2023/04/04 09:31:48;;;;;;;0.00;0.00;;;9.50;99.90;;;;;;5035826;28;20049;-87
2023/04/04 09:34:19;;;;;;;0.20;0.20;;;9.90;99.90;;;;;;5035685;28;20111;-87
2023/04/04 09:36:45;;;;;;;0.00;0.00;;;9.90;99.90;;;;;;5019358;28;20400;-88
2023/04/04 09:39:12;;;;;;;0.00;0.00;;;9.70;99.90;;;;;;5036686;28;20128;-87
2023/04/04 09:41:39;;;;;;;0.10;0.10;;;9.90;99.90;;;;;;5036154;28;20060;-88
2023/04/04 09:44:06;;;;;;;0.00;0.00;;;9.90;99.90;;;;;;5003340;28;20132;-87
2023/04/04 09:46:34;;;;;;;0.00;0.00;;;10.20;99.90;;;;;;5036595;28;20373;-87
2023/04/04 09:49:00;;;;;;;0.00;0.00;;;9.90;99.90;;;;;;5020159;28;20056;-87
2023/04/04 09:51:37;;;;;;;0.00;0.00;;;9.90;99.90;;;;;;5019302;28;20394;-88
2023/04/04 09:54:05;;;;;;;4.78;0.63;;;10.00;99.90;;;;;;5036338;28;20049;-88
2023/04/04 09:56:33;;;;;;;0.00;0.00;;;10.20;99.90;;;;;;5019342;28;20053;-88
2023/04/04 09:59:00;;;;;;;0.00;0.00;;;10.50;99.90;;;;;;5036393;28;20053;-88
2023/04/04 10:01:27;;;;;;;0.00;0.00;;;11.00;99.90;;;;;;5035927;28;20132;-88
2023/04/04 10:03:54;;;;;;;0.10;0.10;;;11.10;99.90;;;;;;5035679;28;20050;-87
2023/04/04 10:06:21;;;;;;;0.00;0.00;;;11.30;99.90;;;;;;5035235;28;20049;-87
2023/04/04 10:08:47;;;;;;;0.30;0.05;;;11.50;99.90;;;;;;5035136;28;20057;-87
2023/04/04 10:11:31;;;;;;;0.00;0.00;;;11.20;99.90;;;;;;5036209;28;20092;-87
2023/04/04 10:13:57;;;;;;;0.00;0.00;;;11.50;99.90;;;;;;5018887;28;20076;-87
2023/04/04 10:16:24;;;;;;;0.00;0.00;;;11.60;99.90;;;;;;5034880;28;20045;-87
2023/04/04 10:18:51;;;;;;;0.00;0.00;;;11.50;99.90;;;;;;5019566;28;20060;-87
2023/04/04 10:21:17;;;;;;;0.00;0.00;;;11.40;99.90;;;;;;5002538;28;20050;-87
2023/04/04 10:23:45;;;;;;;0.00;0.00;;;11.50;99.90;;;;;;5019430;28;20110;-86
2023/04/04 10:26:12;;;;;;;0.00;0.00;;;11.50;99.90;;;;;;5035810;28;20046;-88
2023/04/04 10:28:38;;;;;;;0.00;0.00;;;11.50;99.90;;;;;;5035134;28;20041;-87
2023/04/04 10:31:23;;;;;;;0.00;0.00;;;11.70;99.90;;;;;;5035367;28;20056;-87
2023/04/04 10:34:07;;;;;;;;;;;11.40;99.90;;;;;;5035672;28;20081;-87
2023/04/04 10:36:43;;;;;;;0.00;0.00;;;11.70;99.90;;;;;;5018192;28;20357;-87
2023/04/04 10:39:23;;;;;;;0.00;0.00;;;11.70;99.90;;;;;;5034876;28;20057;-88
2023/04/04 10:41:51;;;;;;;0.00;0.00;;;11.60;99.90;;;;;;5035109;28;20394;-87
2023/04/04 10:44:32;;;;;;;0.20;0.00;;;11.70;99.90;;;;;;5002898;28;20049;-87
2023/04/04 10:47:21;;;;;;;0.10;0.10;;;11.80;99.90;;;;;;5035511;28;20389;-88
2023/04/04 10:49:48;;;;;;;0.00;0.00;;;11.90;99.90;;;;;;5033750;28;20057;-87
2023/04/04 10:52:17;;;;;;;0.20;0.20;;;12.20;99.90;;;;;;5034503;28;20474;-88
2023/04/04 10:54:44;;;;;;;1.20;0.30;;;12.40;98.90;;;;;;5034397;28;20045;-88
2023/04/04 10:57:12;;;;;;;0.93;0.38;;;12.30;63.40;;;;;;5017997;28;20053;-88
2023/04/04 11:00:08;;;;;;;0.73;0.20;;;12.10;63.70;;;;;;5018170;28;20042;-87
2023/04/04 11:02:54;;;;;;;0.10;0.10;;;11.90;27.30;;;;;;5017941;28;20140;-88
2023/04/04 11:05:31;;;;;;;0.00;0.00;;;11.90;47.60;;;;;;5034623;28;20061;-88
2023/04/04 11:07:57;;;;;;;0.00;0.00;;;11.70;30.70;;;;;;5034840;28;20052;-88
2023/04/04 11:10:26;;;;;;;0.00;0.00;;;11.70;69.10;;;;;;5018185;28;20116;-88
2023/04/04 11:12:54;;;;;;;0.00;0.00;;;11.70;38.50;;;;;;5018477;28;20056;-86
2023/04/04 11:15:24;;;;;;;1.48;0.40;;;11.90;46.70;;;;;;5017403;28;20136;-87
2023/04/04 11:18:00;;;;;;;0.10;0.10;;;11.90;19.40;;;;;;5017576;28;20053;-86
2023/04/04 11:20:37;;;;;;;0.85;0.32;;;12.00;16.20;;;;;;5035060;28;20508;-86
2023/04/04 11:23:09;;;;;;;0.20;0.10;;;11.80;1.00;;;;;;5018094;28;20512;-87
2023/04/04 11:25:49;;;;;;;0.00;0.00;;;11.90;1.00;;;;;;5017415;28;20037;-87
2023/04/04 11:28:24;;;;;;;0.00;0.00;;;11.60;1.00;;;;;;5019406;28;20119;-86
2023/04/04 11:31:16;;;;;;;0.15;0.05;;;11.60;1.00;;;;;;5034145;28;20091;-86
2023/04/04 11:34:06;;;;;;;0.00;0.00;;;11.40;1.00;;;;;;5017207;28;20049;-85
2023/04/04 11:36:43;;;;;;;0.20;0.20;;;11.50;1.00;;;;;;4989856;28;20524;-85
2023/04/04 11:39:24;;;;;;;0.00;0.00;;;12.00;1.00;;;;;;5033980;28;20068;-86
2023/04/04 11:41:54;;;;;;;3.70;0.90;;;12.00;1.00;;;;;;5016882;28;20053;-85
2023/04/04 11:44:22;;;;;;;0.00;0.00;;;11.90;1.00;;;;;;5033567;28;20075;-85
2023/04/04 11:46:53;;;;;;;0.00;0.00;;;11.70;1.00;;;;;;5018001;28;20060;-86
2023/04/04 11:49:19;;;;;;;0.00;0.00;;;11.70;1.00;;;;;;5034332;28;20434;-85
2023/04/04 11:51:45;;;;;;;0.10;0.00;;;11.80;1.00;;;;;;5033465;28;20091;-86
2023/04/04 11:54:16;;;;;;;0.03;0.00;;;11.70;1.00;;;;;;5017762;28;20054;-84
2023/04/04 11:56:45;;;;;;;0.00;0.00;;;11.80;1.00;;;;;;5034259;28;20053;-86
2023/04/04 11:59:12;;;;;;;0.00;0.00;;;12.00;1.00;;;;;;5033314;28;20078;-86
2023/04/04 12:01:39;;;;;;;0.10;0.05;;;12.00;1.00;;;;;;5016972;28;20156;-86
2023/04/04 12:04:05;;;;;;;0.03;0.00;;;12.20;1.00;;;;;;5033486;28;20049;-86
2023/04/04 12:06:40;;;;;;;0.00;0.00;;;12.40;1.00;;;;;;5016762;28;20397;-86
2023/04/04 12:09:06;;;;;;;0.00;0.00;;;12.30;1.00;;;;;;5016786;28;20084;-86
2023/04/04 12:11:36;;;;;;;0.00;0.00;;;12.00;1.00;;;;;;5033504;28;20057;-86
2023/04/04 12:14:01;;;;;;;0.00;0.00;;;11.90;1.00;;;;;;5034017;28;20045;-86
2023/04/04 12:16:28;;;;;;;0.00;0.00;;;12.00;1.00;;;;;;5034197;28;20038;-86
2023/04/04 12:18:56;;;;;;;0.05;0.00;;;12.10;1.00;;;;;;5033183;28;20060;-86
2023/04/04 12:21:23;;;;;;;1.08;0.52;;;12.30;1.00;;;;;;5016664;28;20049;-87
2023/04/04 12:23:48;;;;;;;0.00;0.00;;;12.40;1.00;;;;;;5001048;28;20564;-86
2023/04/04 12:26:16;;;;;;;0.00;0.00;;;12.70;1.00;;;;;;5032674;28;20132;-86
2023/04/04 12:28:44;;;;;;;0.00;0.00;;;13.10;1.00;;;;;;5016344;28;20054;-86
2023/04/04 12:31:11;;;;;;;0.00;0.00;;;13.30;1.00;;;;;;5034206;28;20048;-86
2023/04/04 12:33:39;;;;;;;0.10;0.00;;;13.30;1.00;;;;;;5035421;28;20133;-86
2023/04/04 12:36:05;;;;;;;0.00;0.00;;;13.40;1.00;;;;;;5037772;28;20034;-86
2023/04/04 12:38:31;;;;;;;0.00;0.00;;;13.40;1.00;;;;;;5037527;28;20103;-86
2023/04/04 12:40:58;;;;;;;1.13;0.38;;;13.20;1.00;;;;;;5016331;28;20450;-87
2023/04/04 12:43:28;;;;;;;0.25;0.25;;;13.30;1.00;;;;;;5016648;28;20048;-87
2023/04/04 12:45:57;;;;;;;0.00;0.00;;;13.30;1.00;;;;;;5032822;28;20048;-86
2023/04/04 12:48:27;;;;;;;0.00;0.00;;;13.40;1.00;;;;;;5032461;28;20053;-86
2023/04/04 12:50:55;;;;;;;0.03;0.03;;;13.40;1.00;;;;;;5017309;28;20151;-86
2023/04/04 12:53:25;;;;;;;0.00;0.00;;;13.30;1.00;;;;;;5037073;28;20068;-86
2023/04/04 12:55:52;;;;;;;0.00;0.00;;;13.30;1.00;;;;;;5021596;28;20052;-87
2023/04/04 12:58:23;;;;;;;0.10;0.00;;;13.20;1.00;;;;;;5036669;28;20046;-87
2023/04/04 13:00:54;;;;;;;0.00;0.00;;;13.00;1.00;;;;;;5020413;28;20057;-86